Pike Bay, Minnesota
Current Conditions -  °F | °C
As of 6:15 PM on Tuesday 25 Nov 2014 (Local Time) from KY49 Reporting Station
Overcast Overcast  
Wind Chill: 20°   Ceiling: 1400
Heat Index: 20°   Visibility: 10mi
Dew Point: 11°   Wind: 0mph
Humidity: 68%   Direction: NA
Pressure: 29.94"   Gusts: NA
Location:  47.3012°N, 94.5426°W
Report Text: KY49 260015Z AUTO 00000KT 10SM OVC014 M07/M12 A2994 RMK AO2 T10671117
Loading
Personal Weather Stations






























Interactive Weather Map New forecast layout! Learn more

10-Day Weather Forecast

Advertisements
Track Severe Weather on mobile